Time;durP1;ratioP1;P1;durP2;ratioP2;P2;SDS_P1;SDS_P2;PMS_P1;PMS_P2;Temp;Humidity;BMP_temperature;BMP_pressure;BME280_temperature;BME280_humidity;BME280_pressure;Samples;Min_cycle;Max_cycle;Signal;HPM_P1;HPM_P2
2023/09/21 00:03:57;;;;;;;;;;;;;;;15.35;100.00;94955.69;10527330;28;2024;-76
2023/09/21 00:09:00;;;;;;;;;;;;;;;15.29;100.00;94957.78;10524797;28;1880;-74
2023/09/21 00:14:02;;;;;;;;;;;;;;;15.28;100.00;94949.97;10523098;28;1847;-75
2023/09/21 00:19:07;;;;;;;;;;;;;;;15.36;100.00;94943.72;10523833;28;1903;-74
2023/09/21 00:24:12;;;;;;;;;;;;;;;15.39;100.00;94929.53;10520260;28;2579;-74
2023/09/21 00:29:15;;;;;;;;;;;;;;;15.20;100.00;94921.00;10524458;28;1860;-76
2023/09/21 00:34:18;;;;;;;;;;;;;;;15.13;100.00;94914.16;10525817;28;1912;-75
2023/09/21 00:39:20;;;;;;;;;;;;;;;15.23;100.00;94914.94;10524213;28;1834;-75
2023/09/21 00:44:23;;;;;;;;;;;;;;;15.41;100.00;94916.47;10516514;28;4691;-74
2023/09/21 00:49:27;;;;;;;;;;;;;;;15.49;100.00;94907.50;10521653;28;1926;-75
2023/09/21 00:54:30;;;;;;;;;;;;;;;15.64;100.00;94904.28;10523757;28;2174;-76
2023/09/21 00:59:35;;;;;;;;;;;;;;;15.68;100.00;94897.09;10524303;28;1973;-75
2023/09/21 01:04:39;;;;;;;;;;;;;;;15.61;100.00;94887.88;10525294;28;2065;-75
2023/09/21 01:09:42;;;;;;;;;;;;;;;15.56;100.00;94883.41;10519209;28;1950;-76
2023/09/21 01:20:32;;;;;;;;;;;;;;;15.56;100.00;94878.00;10518742;28;2019;-77
2023/09/21 01:25:34;;;;;;;;;;;;;;;15.46;100.00;94881.09;10519928;28;2383;-76
2023/09/21 01:30:36;;;;;;;;;;;;;;;15.48;100.00;94872.63;10523745;28;1908;-74
2023/09/21 01:35:39;;;;;;;;;;;;;;;15.37;100.00;94858.66;10519003;28;1915;-74
2023/09/21 01:40:41;;;;;;;;;;;;;;;15.30;100.00;94861.09;10518379;28;4662;-75
2023/09/21 01:45:44;;;;;;;;;;;;;;;15.23;100.00;94844.56;10521986;28;1995;-74
2023/09/21 01:50:47;;;;;;;;;;;;;;;15.22;100.00;94851.09;10514671;28;2182;-73
2023/09/21 01:55:50;;;;;;;;;;;;;;;15.24;100.00;94846.13;10519552;28;2067;-75
2023/09/21 02:00:52;;;;;;;;;;;;;;;15.21;100.00;94836.78;10522845;28;2001;-75
2023/09/21 02:05:57;;;;;;;;;;;;;;;15.27;100.00;94832.75;10516417;28;1953;-75
2023/09/21 02:11:00;;;;;;;;;;;;;;;15.25;100.00;94820.66;10518197;28;2522;-73
2023/09/21 02:16:03;;;;;;;;;;;;;;;15.13;100.00;94824.84;10519819;28;1930;-72
2023/09/21 02:21:08;;;;;;;;;;;;;;;15.06;100.00;94821.06;10521159;28;1988;-73
2023/09/21 02:26:11;;;;;;;;;;;;;;;15.04;100.00;94824.09;10519737;28;1984;-72
2023/09/21 02:31:13;;;;;;;;;;;;;;;15.05;100.00;94808.66;10524902;28;2094;-74
2023/09/21 02:36:19;;;;;;;;;;;;;;;15.18;100.00;94814.97;10504240;28;1910;-73
2023/09/21 02:41:23;;;;;;;;;;;;;;;15.07;100.00;94807.19;10516587;28;4648;-73
2023/09/21 02:46:28;;;;;;;;;;;;;;;15.12;100.00;94804.31;10521975;28;1980;-75
2023/09/21 02:51:30;;;;;;;;;;;;;;;15.23;100.00;94806.66;10518797;28;1959;-74
2023/09/21 02:56:33;;;;;;;;;;;;;;;15.08;100.00;94795.28;10516475;28;2588;-72
2023/09/21 03:01:35;;;;;;;;;;;;;;;15.01;100.00;94784.13;10522655;28;2099;-76
2023/09/21 03:06:38;;;;;;;;;;;;;;;14.92;100.00;94782.59;10524631;28;1939;-75
2023/09/21 03:11:42;;;;;;;;;;;;;;;14.82;100.00;94775.63;10513876;28;2147;-77
2023/09/21 03:16:44;;;;;;;;;;;;;;;14.75;100.00;94781.53;10518656;28;2301;-76
2023/09/21 03:21:47;;;;;;;;;;;;;;;14.84;100.00;94776.91;10523014;28;1972;-73
2023/09/21 03:26:50;;;;;;;;;;;;;;;14.90;100.00;94763.19;10526326;28;1967;-75
2023/09/21 03:31:55;;;;;;;;;;;;;;;14.81;100.00;94758.59;10517429;28;1910;-75
2023/09/21 03:36:59;;;;;;;;;;;;;;;14.75;100.00;94761.81;10520333;28;1989;-77
2023/09/21 03:42:03;;;;;;;;;;;;;;;14.82;100.00;94764.78;10512327;28;4683;-75
2023/09/21 03:47:06;;;;;;;;;;;;;;;14.75;100.00;94757.19;10518937;28;1935;-74
2023/09/21 03:52:16;;;;;;;;;;;;;;;14.73;100.00;94755.94;10523751;28;2024;-77
2023/09/21 03:57:18;;;;;;;;;;;;;;;14.68;100.00;94748.00;10519039;28;3125;-75
2023/09/21 04:02:22;;;;;;;;;;;;;;;14.76;100.00;94739.03;10520990;28;1914;-75
2023/09/21 04:07:24;;;;;;;;;;;;;;;14.66;100.00;94726.69;10519729;28;1962;-73
2023/09/21 04:12:27;;;;;;;;;;;;;;;14.73;100.00;94716.16;10518477;28;2059;-78
2023/09/21 04:17:30;;;;;;;;;;;;;;;14.84;100.00;94708.47;10516321;28;1958;-75
2023/09/21 04:22:32;;;;;;;;;;;;;;;14.70;100.00;94721.44;10524838;28;1984;-74
2023/09/21 04:27:36;;;;;;;;;;;;;;;14.57;100.00;94721.31;10522680;28;1982;-74
2023/09/21 04:32:38;;;;;;;;;;;;;;;14.55;100.00;94728.16;10529804;28;1981;-74
2023/09/21 04:37:41;;;;;;;;;;;;;;;14.43;100.00;94726.09;10527134;28;1927;-74
2023/09/21 04:42:46;;;;;;;;;;;;;;;14.60;100.00;94720.66;10523661;28;4612;-75
2023/09/21 04:47:49;;;;;;;;;;;;;;;14.69;100.00;94706.28;10525683;28;1953;-75
2023/09/21 04:52:52;;;;;;;;;;;;;;;14.53;100.00;94717.66;10523128;28;2050;-77
2023/09/21 04:57:55;;;;;;;;;;;;;;;14.55;100.00;94717.34;10524799;28;2147;-76
2023/09/21 05:02:57;;;;;;;;;;;;;;;14.63;100.00;94719.19;10529445;28;1954;-75
2023/09/21 05:08:03;;;;;;;;;;;;;;;14.68;100.00;94712.81;10526098;28;1938;-75
2023/09/21 05:13:06;;;;;;;;;;;;;;;14.78;100.00;94705.16;10528852;28;2238;-76
2023/09/21 05:18:08;;;;;;;;;;;;;;;14.94;100.00;94702.66;10525797;28;1940;-75
2023/09/21 05:23:11;;;;;;;;;;;;;;;15.10;100.00;94708.31;10519943;28;1953;-75
2023/09/21 05:28:16;;;;;;;;;;;;;;;15.31;100.00;94692.09;10525419;28;3172;-77
2023/09/21 05:33:18;;;;;;;;;;;;;;;15.44;100.00;94688.34;10525376;28;1907;-76
2023/09/21 05:38:21;;;;;;;;;;;;;;;15.60;100.00;94692.03;10519910;28;1953;-76
2023/09/21 05:43:23;;;;;;;;;;;;;;;15.67;100.00;94689.63;10519756;28;4571;-76
2023/09/21 05:48:27;;;;;;;;;;;;;;;15.89;100.00;94682.25;10522035;28;1844;-77
2023/09/21 05:53:31;;;;;;;;;;;;;;;15.94;100.00;94679.31;10522401;28;1893;-75
2023/09/21 05:58:33;;;;;;;;;;;;;;;16.08;100.00;94679.81;10515926;28;1858;-74
2023/09/21 06:03:36;;;;;;;;;;;;;;;16.12;100.00;94682.66;10527645;28;2006;-77
2023/09/21 06:08:38;;;;;;;;;;;;;;;16.24;100.00;94677.28;10529142;28;1834;-78
2023/09/21 06:13:41;;;;;;;;;;;;;;;16.37;100.00;94687.00;10534593;28;2913;-80
2023/09/21 06:18:44;;;;;;;;;;;;;;;16.65;100.00;94670.88;10533129;28;1939;-79
2023/09/21 06:23:49;;;;;;;;;;;;;;;16.97;100.00;94666.47;10529357;28;2035;-76
2023/09/21 06:28:52;;;;;;;;;;;;;;;17.04;100.00;94660.47;10530525;28;2127;-76
2023/09/21 06:33:58;;;;;;;;;;;;;;;17.40;100.00;94639.81;10532892;28;1806;-78
2023/09/21 06:39:01;;;;;;;;;;;;;;;17.54;100.00;94634.78;10531879;28;1821;-77
2023/09/21 06:44:03;;;;;;;;;;;;;;;17.85;100.00;94627.91;10532573;28;4535;-80
2023/09/21 06:49:06;;;;;;;;;;;;;;;18.04;100.00;94623.38;10527882;28;1880;-78
2023/09/21 06:54:12;;;;;;;;;;;;;;;18.10;100.00;94619.28;10527567;28;1844;-77
2023/09/21 06:59:15;;;;;;;;;;;;;;;18.33;100.00;94611.31;10528095;28;3119;-78
2023/09/21 07:04:17;;;;;;;;;;;;;;;18.42;100.00;94600.25;10523186;28;1975;-80
2023/09/21 07:09:20;;;;;;;;;;;;;;;18.56;100.00;94594.34;10527409;28;1963;-77
2023/09/21 07:14:23;;;;;;;;;;;;;;;18.84;100.00;94597.78;10526354;28;2142;-76
2023/09/21 07:19:25;;;;;;;;;;;;;;;19.00;100.00;94591.50;10521379;28;1973;-76
2023/09/21 07:24:29;;;;;;;;;;;;;;;19.23;100.00;94586.16;10522743;28;1922;-79
2023/09/21 07:29:33;;;;;;;;;;;;;;;19.31;100.00;94585.16;10524459;28;1900;-78
2023/09/21 07:34:36;;;;;;;;;;;;;;;19.38;100.00;94577.91;10520009;28;1831;-77
2023/09/21 07:39:38;;;;;;;;;;;;;;;19.47;100.00;94574.19;10521679;28;2043;-78
2023/09/21 07:44:44;;;;;;;;;;;;;;;19.66;100.00;94577.75;10524665;28;4457;-76
2023/09/21 07:49:46;;;;;;;;;;;;;;;19.80;100.00;94576.44;10528752;28;1809;-77
2023/09/21 07:54:49;;;;;;;;;;;;;;;20.01;100.00;94574.09;10532222;28;1703;-76
2023/09/21 07:59:51;;;;;;;;;;;;;;;20.25;100.00;94572.94;10528003;28;3146;-74
2023/09/21 08:04:53;;;;;;;;;;;;;;;20.36;100.00;94573.91;10530536;28;1941;-77
2023/09/21 08:09:56;;;;;;;;;;;;;;;20.58;100.00;94572.34;10528367;28;1906;-70
2023/09/21 08:14:59;;;;;;;;;;;;;;;20.72;100.00;94577.22;10526062;28;1906;-73
2023/09/21 08:20:03;;;;;;;;;;;;;;;20.91;100.00;94574.38;10525282;28;1817;-74
2023/09/21 08:25:06;;;;;;;;;;;;;;;21.02;100.00;94558.94;10521988;28;1906;-73
2023/09/21 08:30:09;;;;;;;;;;;;;;;21.21;100.00;94568.16;10520509;28;1941;-73
2023/09/21 08:35:12;;;;;;;;;;;;;;;21.60;100.00;94557.75;10524450;28;1891;-71
2023/09/21 08:40:14;;;;;;;;;;;;;;;21.96;100.00;94558.94;10525947;28;4610;-72
2023/09/21 08:45:19;;;;;;;;;;;;;;;22.15;100.00;94554.44;10519603;28;1918;-72
2023/09/21 08:50:21;;;;;;;;;;;;;;;22.29;100.00;94563.56;10519870;28;1896;-72
2023/09/21 08:55:23;;;;;;;;;;;;;;;22.34;100.00;94554.22;10527952;28;1939;-72
2023/09/21 09:00:26;;;;;;;;;;;;;;;22.61;100.00;94550.13;10522247;28;1932;-73
2023/09/21 09:05:29;;;;;;;;;;;;;;;22.86;100.00;94535.81;10518205;28;1938;-78
2023/09/21 09:10:31;;;;;;;;;;;;;;;22.86;100.00;94530.34;10523679;28;1901;-70
2023/09/21 09:15:34;;;;;;;;;;;;;;;23.02;100.00;94522.63;10519773;28;1789;-71
2023/09/21 09:20:37;;;;;;;;;;;;;;;23.00;100.00;94511.28;10525370;28;1915;-72
2023/09/21 09:25:40;;;;;;;;;;;;;;;22.98;100.00;94510.88;10525716;28;2832;-71
2023/09/21 09:30:45;;;;;;;;;;;;;;;23.18;100.00;94500.41;10524847;28;1833;-71
2023/09/21 09:35:48;;;;;;;;;;;;;;;23.21;100.00;94488.66;10525420;28;1817;-72
2023/09/21 09:40:51;;;;;;;;;;;;;;;23.20;100.00;94478.88;10520666;28;4603;-70
2023/09/21 09:45:53;;;;;;;;;;;;;;;23.35;100.00;94474.22;10519408;28;1913;-73
2023/09/21 09:50:57;;;;;;;;;;;;;;;23.33;100.00;94477.34;10521513;28;1918;-73
2023/09/21 09:56:03;;;;;;;;;;;;;;;23.44;100.00;94482.88;10519252;28;1936;-71
2023/09/21 10:01:07;;;;;;;;;;;;;;;23.60;100.00;94477.84;10523339;28;1820;-70
2023/09/21 10:06:10;;;;;;;;;;;;;;;23.57;100.00;94470.38;10524658;28;1983;-70
2023/09/21 10:11:13;;;;;;;;;;;;;;;23.79;100.00;94468.47;10519804;28;2052;-71
2023/09/21 10:16:17;;;;;;;;;;;;;;;24.04;100.00;94460.28;10519561;28;1875;-71
2023/09/21 10:21:21;;;;;;;;;;;;;;;24.15;100.00;94452.81;10512815;28;1927;-71
2023/09/21 10:26:23;;;;;;;;;;;;;;;24.28;100.00;94442.22;10523120;28;2632;-70
2023/09/21 10:31:26;;;;;;;;;;;;;;;24.52;100.00;94437.94;10518076;28;1849;-72
2023/09/21 10:36:28;;;;;;;;;;;;;;;24.47;100.00;94430.88;10518907;28;2151;-70
2023/09/21 10:41:31;;;;;;;;;;;;;;;24.63;100.00;94419.47;10519925;28;4670;-69
2023/09/21 10:46:33;;;;;;;;;;;;;;;24.56;100.00;94402.19;10521689;28;2115;-72
2023/09/21 10:51:39;;;;;;;;;;;;;;;24.52;100.00;94402.22;10525270;28;1855;-71
2023/09/21 10:56:42;;;;;;;;;;;;;;;24.79;98.76;94397.03;10518791;28;1924;-73
2023/09/21 11:01:46;;;;;;;;;;;;;;;24.83;100.00;94394.28;10526000;28;1907;-74
2023/09/21 11:06:48;;;;;;;;;;;;;;;24.90;99.18;94388.75;10524631;28;2020;-73
2023/09/21 11:11:50;;;;;;;;;;;;;;;24.96;98.04;94381.66;10526387;28;1933;-73
2023/09/21 11:16:53;;;;;;;;;;;;;;;24.75;94.83;94374.28;10524540;28;1803;-75
2023/09/21 11:21:55;;;;;;;;;;;;;;;24.73;97.72;94360.94;10518469;28;1893;-73
2023/09/21 11:26:58;;;;;;;;;;;;;;;25.01;92.05;94354.53;10514620;28;2555;-75
2023/09/21 11:32:01;;;;;;;;;;;;;;;25.16;93.23;94347.03;10526954;28;1869;-73
2023/09/21 11:37:05;;;;;;;;;;;;;;;25.19;85.50;94337.97;10530825;28;1944;-78
2023/09/21 11:42:08;;;;;;;;;;;;;;;25.12;85.92;94328.97;10528512;28;4682;-74
2023/09/21 11:47:11;;;;;;;;;;;;;;;25.21;85.15;94310.88;10527560;28;1921;-71
2023/09/21 11:52:14;;;;;;;;;;;;;;;25.28;81.75;94321.03;10528772;28;1916;-73
2023/09/21 11:57:17;;;;;;;;;;;;;;;25.22;82.88;94311.66;10528272;28;1843;-72
2023/09/21 12:02:20;;;;;;;;;;;;;;;25.09;83.61;94305.84;10522803;28;1830;-70
2023/09/21 12:07:22;;;;;;;;;;;;;;;25.32;82.70;94294.28;10525787;28;2102;-70
2023/09/21 12:12:28;;;;;;;;;;;;;;;25.41;79.85;94297.38;10522958;28;2632;-70
2023/09/21 12:17:32;;;;;;;;;;;;;;;25.65;67.82;94283.81;10524442;28;2033;-70
2023/09/21 12:22:37;;;;;;;;;;;;;;;25.60;65.87;94280.31;10523023;28;1969;-71
2023/09/21 12:27:39;;;;;;;;;;;;;;;25.70;64.25;94277.84;10520799;28;1910;-71
2023/09/21 12:32:41;;;;;;;;;;;;;;;25.78;65.65;94266.44;10524460;28;1833;-70
2023/09/21 12:37:44;;;;;;;;;;;;;;;25.94;57.29;94256.84;10522224;28;1973;-71
2023/09/21 12:42:47;;;;;;;;;;;;;;;25.95;55.79;94258.38;10522904;28;4615;-76
2023/09/21 12:47:50;;;;;;;;;;;;;;;26.00;61.24;94260.69;10522391;28;1975;-72
2023/09/21 12:52:54;;;;;;;;;;;;;;;25.85;56.94;94249.84;10523612;28;1820;-73
2023/09/21 12:57:58;;;;;;;;;;;;;;;25.74;60.65;94246.41;10523981;28;1853;-71
2023/09/21 13:03:02;;;;;;;;;;;;;;;25.80;61.71;94242.03;10523942;28;1870;-71
2023/09/21 13:08:06;;;;;;;;;;;;;;;25.80;58.77;94244.00;10521912;28;1970;-72
2023/09/21 13:13:08;;;;;;;;;;;;;;;25.48;80.56;94238.75;10522314;28;2646;-75
2023/09/21 13:18:15;;;;;;;;;;;;;;;25.49;83.10;94237.56;10522702;28;1675;-78
2023/09/21 13:23:17;;;;;;;;;;;;;;;25.39;83.58;94227.44;10523359;28;1874;-77
2023/09/21 13:28:20;;;;;;;;;;;;;;;25.67;80.18;94227.19;10521646;28;1913;-86
2023/09/21 13:33:23;;;;;;;;;;;;;;;25.67;77.23;94223.66;10520043;28;1830;-78
2023/09/21 13:38:27;;;;;;;;;;;;;;;25.58;76.67;94218.63;10525755;28;1849;-75
2023/09/21 13:43:29;;;;;;;;;;;;;;;25.65;80.31;94215.81;10525499;28;4571;-76
2023/09/21 13:48:33;;;;;;;;;;;;;;;25.41;80.64;94214.84;10524268;28;1985;-72
2023/09/21 13:53:35;;;;;;;;;;;;;;;25.31;81.32;94199.19;10521587;28;2020;-72
2023/09/21 13:58:38;;;;;;;;;;;;;;;25.30;79.64;94192.94;10520095;28;2840;-72
2023/09/21 14:03:41;;;;;;;;;;;;;;;25.27;80.90;94188.25;10515209;28;2123;-72
2023/09/21 14:08:44;;;;;;;;;;;;;;;25.24;81.48;94188.28;10515982;28;1926;-71
2023/09/21 14:13:47;;;;;;;;;;;;;;;25.25;82.48;94185.09;10529354;28;1829;-74
2023/09/21 14:18:49;;;;;;;;;;;;;;;25.30;83.27;94189.41;10525916;28;2133;-77
2023/09/21 14:23:52;;;;;;;;;;;;;;;25.33;81.47;94180.34;10526870;28;1774;-75
2023/09/21 14:28:54;;;;;;;;;;;;;;;25.23;86.02;94176.50;10521178;28;1914;-76
2023/09/21 14:33:57;;;;;;;;;;;;;;;25.25;85.25;94176.06;10524988;28;1890;-76
2023/09/21 14:38:59;;;;;;;;;;;;;;;25.16;87.40;94171.06;10525222;28;2062;-76
2023/09/21 14:44:02;;;;;;;;;;;;;;;25.06;90.38;94160.91;10526989;28;3054;-78
2023/09/21 14:49:04;;;;;;;;;;;;;;;25.07;90.63;94159.75;10525370;28;1911;-77
2023/09/21 14:54:06;;;;;;;;;;;;;;;25.19;89.29;94150.19;10532368;28;1824;-78
2023/09/21 14:59:09;;;;;;;;;;;;;;;25.24;89.83;94152.53;10523789;28;1908;-74
2023/09/21 15:04:12;;;;;;;;;;;;;;;25.25;90.73;94138.34;10524318;28;1833;-76
2023/09/21 15:09:15;;;;;;;;;;;;;;;25.27;89.92;94132.47;10522304;28;1889;-75
2023/09/21 15:14:18;;;;;;;;;;;;;;;25.21;92.07;94134.88;10520421;28;1927;-74
2023/09/21 15:19:20;;;;;;;;;;;;;;;25.19;94.04;94133.69;10516443;28;1872;-77
2023/09/21 15:24:23;;;;;;;;;;;;;;;25.09;93.72;94116.13;10523503;28;1985;-76
2023/09/21 15:29:26;;;;;;;;;;;;;;;25.04;88.93;94119.28;10522473;28;3092;-74
2023/09/21 15:34:28;;;;;;;;;;;;;;;24.96;92.22;94107.56;10518303;28;1968;-76
2023/09/21 15:39:31;;;;;;;;;;;;;;;24.95;91.72;94099.75;10524009;28;1888;-74
2023/09/21 15:44:33;;;;;;;;;;;;;;;24.75;92.80;94103.03;10524431;28;1961;-76
2023/09/21 15:49:37;;;;;;;;;;;;;;;24.69;93.57;94112.91;10521284;28;1976;-76
2023/09/21 15:54:39;;;;;;;;;;;;;;;24.64;94.41;94115.28;10519735;28;1955;-75
2023/09/21 15:59:42;;;;;;;;;;;;;;;24.48;94.88;94110.28;10524075;28;1920;-76
2023/09/21 16:04:44;;;;;;;;;;;;;;;24.34;96.47;94110.38;10513830;28;1960;-75
2023/09/21 16:09:49;;;;;;;;;;;;;;;24.20;97.48;94112.00;10520610;28;2071;-76
2023/09/21 16:14:52;;;;;;;;;;;;;;;24.05;98.22;94110.53;10524682;28;2016;-76
2023/09/21 16:19:54;;;;;;;;;;;;;;;23.96;99.27;94115.66;10520633;28;1852;-77
2023/09/21 16:24:57;;;;;;;;;;;;;;;23.81;100.00;94109.47;10525295;28;1944;-75
2023/09/21 16:29:59;;;;;;;;;;;;;;;23.81;100.00;94111.41;10528546;28;3074;-77
2023/09/21 16:35:01;;;;;;;;;;;;;;;23.84;100.00;94102.38;10528836;28;1873;-76
2023/09/21 16:40:04;;;;;;;;;;;;;;;23.91;100.00;94099.59;10528195;28;4651;-78
2023/09/21 16:45:07;;;;;;;;;;;;;;;23.91;100.00;94102.34;10532772;28;1922;-76
2023/09/21 16:50:09;;;;;;;;;;;;;;;23.57;100.00;94107.56;10526641;28;1813;-75
2023/09/21 16:55:13;;;;;;;;;;;;;;;23.26;100.00;94107.22;10528378;28;1938;-76
2023/09/21 17:00:15;;;;;;;;;;;;;;;22.99;100.00;94106.88;10525114;28;1865;-77
2023/09/21 17:05:22;;;;;;;;;;;;;;;22.62;100.00;94112.72;10528619;28;1977;-78
2023/09/21 17:10:25;;;;;;;;;;;;;;;22.30;100.00;94101.75;10526147;28;1918;-76
2023/09/21 17:15:27;;;;;;;;;;;;;;;22.10;100.00;94102.09;10529431;28;2918;-76
2023/09/21 17:20:30;;;;;;;;;;;;;;;22.11;100.00;94108.34;10523215;28;1912;-76
2023/09/21 17:25:33;;;;;;;;;;;;;;;22.00;100.00;94111.03;10527474;28;1984;-79
2023/09/21 17:30:36;;;;;;;;;;;;;;;21.90;100.00;94109.06;10512474;28;2109;-76
2023/09/21 17:35:39;;;;;;;;;;;;;;;21.78;100.00;94101.19;10542231;28;1956;-78
2023/09/21 17:40:41;;;;;;;;;;;;;;;21.66;100.00;94085.13;10533596;28;4663;-77
2023/09/21 17:45:43;;;;;;;;;;;;;;;21.50;100.00;94086.25;10534229;28;1914;-76
2023/09/21 17:50:46;;;;;;;;;;;;;;;21.37;100.00;94082.25;10516784;28;1813;-76
2023/09/21 17:56:06;;;;;;;;;;;;;;;21.22;100.00;94080.59;10527592;28;1911;-75
2023/09/21 18:01:12;;;;;;;;;;;;;;;21.09;100.00;94084.81;10524123;28;1742;-77
2023/09/21 18:06:15;;;;;;;;;;;;;;;20.73;100.00;94090.03;10529147;28;1998;-77
2023/09/21 18:11:17;;;;;;;;;;;;;;;20.70;100.00;94099.78;10526094;28;1881;-77
2023/09/21 18:16:20;;;;;;;;;;;;;;;20.61;100.00;94107.47;10526217;28;2925;-77
2023/09/21 18:21:22;;;;;;;;;;;;;;;20.43;100.00;94107.31;10519667;28;1873;-76
2023/09/21 18:26:25;;;;;;;;;;;;;;;20.29;100.00;94099.00;10519873;28;1971;-75
2023/09/21 18:31:27;;;;;;;;;;;;;;;20.35;100.00;94094.75;10522292;28;1905;-75
2023/09/21 18:36:30;;;;;;;;;;;;;;;20.31;100.00;94093.19;10525498;28;1917;-77
2023/09/21 18:41:33;;;;;;;;;;;;;;;20.37;100.00;94092.47;10525175;28;4619;-76
2023/09/21 18:46:38;;;;;;;;;;;;;;;20.45;100.00;94090.59;10516777;28;1918;-76
2023/09/21 18:51:41;;;;;;;;;;;;;;;20.48;100.00;94092.56;10521970;28;2057;-77
2023/09/21 18:56:45;;;;;;;;;;;;;;;20.42;100.00;94089.38;10523042;28;2035;-76
2023/09/21 19:02:04;;;;;;;;;;;;;;;20.41;100.00;94093.25;10515960;28;2974;-77
2023/09/21 19:07:06;;;;;;;;;;;;;;;20.29;100.00;94101.72;10518644;28;2005;-78
2023/09/21 19:12:09;;;;;;;;;;;;;;;20.15;100.00;94107.03;10518006;28;2017;-77
2023/09/21 19:17:11;;;;;;;;;;;;;;;19.95;100.00;94103.72;10520320;28;2130;-77
2023/09/21 19:22:15;;;;;;;;;;;;;;;19.89;100.00;94103.28;10523018;28;1926;-77
2023/09/21 19:27:18;;;;;;;;;;;;;;;19.66;100.00;94092.50;10518702;28;1955;-76
2023/09/21 19:32:22;;;;;;;;;;;;;;;19.58;100.00;94090.06;10520598;28;1858;-77
2023/09/21 19:37:24;;;;;;;;;;;;;;;19.41;100.00;94083.22;10517996;28;1960;-76
2023/09/21 19:42:27;;;;;;;;;;;;;;;19.42;100.00;94071.16;10522629;28;1983;-76
2023/09/21 19:47:29;;;;;;;;;;;;;;;19.49;100.00;94067.75;10516681;28;2963;-76
2023/09/21 19:52:32;;;;;;;;;;;;;;;19.39;100.00;94061.00;10528025;28;1881;-76
2023/09/21 19:57:35;;;;;;;;;;;;;;;19.45;100.00;94052.13;10529221;28;1932;-76
2023/09/21 20:02:38;;;;;;;;;;;;;;;19.49;100.00;94057.63;10527407;28;1974;-76
2023/09/21 20:07:40;;;;;;;;;;;;;;;19.54;100.00;94061.97;10523590;28;1926;-77
2023/09/21 20:12:43;;;;;;;;;;;;;;;19.61;100.00;94056.63;10528762;28;1934;-77
2023/09/21 20:17:46;;;;;;;;;;;;;;;19.57;100.00;94055.75;10528616;28;1967;-77
2023/09/21 20:22:49;;;;;;;;;;;;;;;19.76;100.00;94060.28;10527220;28;1919;-77
2023/09/21 20:27:52;;;;;;;;;;;;;;;19.82;100.00;94056.06;10533179;28;2095;-79
2023/09/21 20:32:54;;;;;;;;;;;;;;;19.87;100.00;94055.72;10533207;28;3269;-76
2023/09/21 20:37:56;;;;;;;;;;;;;;;19.86;100.00;94059.63;10523202;28;2130;-66
2023/09/21 20:42:59;;;;;;;;;;;;;;;20.02;100.00;94075.75;10523432;28;4635;-64
2023/09/21 20:48:02;;;;;;;;;;;;;;;20.01;100.00;94079.63;10526867;28;2048;-64
2023/09/21 20:53:05;;;;;;;;;;;;;;;19.87;100.00;94080.28;10521881;28;1947;-66
2023/09/21 20:58:09;;;;;;;;;;;;;;;19.65;100.00;94084.69;10520607;28;2014;-67
2023/09/21 21:03:12;;;;;;;;;;;;;;;19.78;100.00;94096.91;10522011;28;1940;-65
2023/09/21 21:08:15;;;;;;;;;;;;;;;20.03;100.00;94105.34;10524342;28;1965;-67
2023/09/21 21:13:17;;;;;;;;;;;;;;;20.05;100.00;94145.91;10524237;28;1967;-65
2023/09/21 21:18:20;;;;;;;;;;;;;;;20.29;100.00;94161.75;10521282;28;2923;-66
2023/09/21 21:23:22;;;;;;;;;;;;;;;20.29;100.00;94174.59;10527673;28;1912;-66
2023/09/21 21:28:25;;;;;;;;;;;;;;;20.27;100.00;94172.25;10528199;28;2013;-66
2023/09/21 21:33:27;;;;;;;;;;;;;;;20.32;100.00;94177.38;10524135;28;1880;-66
2023/09/21 21:38:29;;;;;;;;;;;;;;;20.44;100.00;94184.53;10526794;28;1826;-66
2023/09/21 21:43:32;;;;;;;;;;;;;;;20.48;100.00;94180.69;10521018;28;4682;-65
2023/09/21 21:48:34;;;;;;;;;;;;;;;20.41;100.00;94191.50;10523616;28;1917;-65
2023/09/21 21:53:36;;;;;;;;;;;;;;;20.43;100.00;94212.97;10523691;28;1904;-65
2023/09/21 21:58:39;;;;;;;;;;;;;;;20.42;100.00;94227.75;10524943;28;1880;-65
2023/09/21 22:03:42;;;;;;;;;;;;;;;20.34;100.00;94235.09;10521009;28;3621;-65
2023/09/21 22:08:46;;;;;;;;;;;;;;;20.38;100.00;94254.25;10518279;28;1942;-64
2023/09/21 22:13:48;;;;;;;;;;;;;;;20.29;100.00;94276.34;10525176;28;2059;-64
2023/09/21 22:18:50;;;;;;;;;;;;;;;20.46;100.00;94286.72;10515074;28;2115;-65
2023/09/21 22:23:54;;;;;;;;;;;;;;;20.31;100.00;94284.19;10527709;28;1889;-65
2023/09/21 22:28:59;;;;;;;;;;;;;;;20.28;100.00;94296.59;10526492;28;2165;-66
2023/09/21 22:34:01;;;;;;;;;;;;;;;20.12;100.00;94321.34;10519932;28;1843;-65
2023/09/21 22:39:04;;;;;;;;;;;;;;;20.03;100.00;94326.28;10522333;28;1865;-65
2023/09/21 22:44:06;;;;;;;;;;;;;;;19.90;100.00;94369.34;10522182;28;4642;-65
2023/09/21 22:49:09;;;;;;;;;;;;;;;19.52;100.00;94385.84;10518988;28;3006;-66
2023/09/21 22:54:12;;;;;;;;;;;;;;;19.28;100.00;94409.59;10524023;28;1853;-65
2023/09/21 22:59:14;;;;;;;;;;;;;;;18.79;100.00;94412.94;10524897;28;1942;-65
2023/09/21 23:04:17;;;;;;;;;;;;;;;18.62;100.00;94438.59;10516105;28;1901;-64
2023/09/21 23:09:22;;;;;;;;;;;;;;;18.57;100.00;94457.91;10506390;28;1991;-65
2023/09/21 23:14:25;;;;;;;;;;;;;;;18.62;100.00;94468.53;10497470;28;1903;-65
2023/09/21 23:19:28;;;;;;;;;;;;;;;18.75;100.00;94474.66;10517845;28;1952;-65
2023/09/21 23:24:30;;;;;;;;;;;;;;;18.61;100.00;94491.47;10520769;28;2068;-65
2023/09/21 23:29:33;;;;;;;;;;;;;;;18.53;100.00;94488.94;10534267;28;1983;-65
2023/09/21 23:34:36;;;;;;;;;;;;;;;18.43;100.00;94501.16;10522811;28;2865;-65
2023/09/21 23:39:39;;;;;;;;;;;;;;;18.67;100.00;94521.94;10532116;28;1871;-66
2023/09/21 23:44:41;;;;;;;;;;;;;;;18.48;100.00;94519.94;10526446;28;4563;-66
2023/09/21 23:49:44;;;;;;;;;;;;;;;18.52;100.00;94531.69;10532180;28;1918;-64
2023/09/21 23:54:46;;;;;;;;;;;;;;;18.41;100.00;94546.19;10531601;28;2124;-65
2023/09/21 23:59:49;;;;;;;;;;;;;;;18.52;100.00;94548.03;10528434;28;1960;-65
